createdAt,value
2019-04-03T00:00:36.502Z,30.30
2019-04-03T00:03:26.310Z,37.40
2019-04-03T00:06:15.432Z,26.30
2019-04-03T00:09:07.176Z,26.62
2019-04-03T00:11:56.911Z,29.20
2019-04-03T00:14:45.987Z,32.60
2019-04-03T00:17:35.352Z,30.40
2019-04-03T00:20:24.396Z,39.33
2019-04-03T00:23:13.686Z,33.85
2019-04-03T00:26:02.659Z,36.50
2019-04-03T00:28:52.708Z,33.15
2019-04-03T00:31:41.706Z,31.07
2019-04-03T00:34:30.834Z,35.17
2019-04-03T00:37:21.512Z,36.60
2019-04-03T00:40:11.086Z,33.33
2019-04-03T00:43:00.615Z,33.83
2019-04-03T00:45:49.187Z,39.67
2019-04-03T00:48:38.579Z,34.90
2019-04-03T00:51:28.027Z,34.27
2019-04-03T00:54:17.690Z,34.20
2019-04-03T00:57:07.320Z,33.83
2019-04-03T00:59:56.999Z,29.98
2019-04-03T01:02:46.044Z,32.15
2019-04-03T01:05:35.501Z,37.65
2019-04-03T01:08:24.990Z,32.03
2019-04-03T01:11:15.674Z,30.27
2019-04-03T01:14:05.740Z,33.60
2019-04-03T01:16:55.237Z,35.17
2019-04-03T01:19:44.714Z,38.70
2019-04-03T01:22:33.833Z,34.43
2019-04-03T01:25:22.721Z,33.88
2019-04-03T01:28:11.989Z,34.05
2019-04-03T01:31:00.853Z,40.80
2019-04-03T01:33:50.150Z,36.03
2019-04-03T01:36:39.170Z,34.98
2019-04-03T01:39:28.147Z,36.45
2019-04-03T01:42:17.499Z,32.70
2019-04-03T01:45:07.060Z,37.35
2019-04-03T01:47:57.428Z,37.15
2019-04-03T01:50:46.566Z,34.23
2019-04-03T01:53:35.322Z,28.83
2019-04-03T01:56:24.490Z,31.10
2019-04-03T01:59:13.540Z,33.83
2019-04-03T02:02:03.028Z,29.85
2019-04-03T02:04:52.053Z,32.90
2019-04-03T02:07:44.191Z,32.83
2019-04-03T02:10:32.498Z,34.70
2019-04-03T02:13:22.062Z,33.13
2019-04-03T02:16:11.625Z,34.30
2019-04-03T02:19:01.647Z,30.15
2019-04-03T02:21:50.664Z,33.75
2019-04-03T02:24:39.959Z,34.45
2019-04-03T02:27:29.290Z,33.20
2019-04-03T02:30:18.698Z,35.13
2019-04-03T02:33:07.910Z,37.10
2019-04-03T02:35:56.609Z,30.12
2019-04-03T02:38:45.981Z,32.60
2019-04-03T02:41:36.433Z,32.35
2019-04-03T02:44:26.891Z,33.63
2019-04-03T02:47:16.395Z,31.60
2019-04-03T02:50:07.075Z,30.40
2019-04-03T02:52:58.295Z,33.95
2019-04-03T02:55:47.644Z,39.40
2019-04-03T02:58:36.399Z,28.62
2019-04-03T03:01:25.335Z,35.70
2019-04-03T03:04:14.197Z,38.30
2019-04-03T03:07:05.258Z,35.55
2019-04-03T03:09:55.417Z,32.35
2019-04-03T03:12:45.235Z,34.50
2019-04-03T03:15:34.780Z,30.27
2019-04-03T03:18:27.197Z,32.78
2019-04-03T03:21:15.431Z,34.88
2019-04-03T03:24:05.403Z,40.15
2019-04-03T03:26:55.148Z,34.38
2019-04-03T03:29:44.013Z,38.40
2019-04-03T03:32:36.269Z,33.98
2019-04-03T03:35:31.159Z,38.02
2019-04-03T03:38:17.128Z,38.17
2019-04-03T03:41:06.028Z,32.13
2019-04-03T03:43:56.118Z,31.60
2019-04-03T03:46:45.985Z,34.63
2019-04-03T03:49:36.009Z,32.20
2019-04-03T03:52:26.487Z,31.17
2019-04-03T03:55:15.582Z,37.83
2019-04-03T03:58:05.314Z,36.85
2019-04-03T04:00:59.489Z,32.23
2019-04-03T04:03:46.902Z,37.20
2019-04-03T04:06:36.749Z,33.67
2019-04-03T04:09:26.257Z,31.70
2019-04-03T04:12:15.790Z,29.98
2019-04-03T04:15:06.454Z,36.45
2019-04-03T04:17:56.333Z,37.28
2019-04-03T04:20:45.767Z,28.12
2019-04-03T04:23:37.503Z,32.67
2019-04-03T04:26:27.910Z,27.73
2019-04-03T04:29:18.013Z,37.95
2019-04-03T04:32:06.855Z,32.10
2019-04-03T04:34:56.156Z,34.38
2019-04-03T04:37:45.100Z,31.52
2019-04-03T04:40:35.036Z,33.77
2019-04-03T04:43:24.666Z,29.35
2019-04-03T04:46:14.056Z,32.28
2019-04-03T04:49:03.823Z,35.35
2019-04-03T04:51:52.868Z,32.53
2019-04-03T04:54:43.129Z,35.35
2019-04-03T04:57:32.157Z,34.92
2019-04-03T05:00:21.881Z,35.63
2019-04-03T05:03:10.442Z,33.13
2019-04-03T05:05:59.863Z,32.83
2019-04-03T05:11:39.059Z,35.95
2019-04-03T05:14:28.057Z,39.05
2019-04-03T05:17:16.965Z,33.18
2019-04-03T05:20:07.559Z,34.53
2019-04-03T05:22:56.805Z,30.97
2019-04-03T05:25:46.496Z,38.48
2019-04-03T05:28:35.355Z,33.78
2019-04-03T05:31:24.720Z,36.90
2019-04-03T05:34:14.081Z,37.90
2019-04-03T05:37:03.972Z,30.10
2019-04-03T05:39:55.656Z,34.73
2019-04-03T05:42:44.077Z,31.27
2019-04-03T05:45:35.387Z,39.20
2019-04-03T05:48:25.363Z,35.63
2019-04-03T05:51:14.729Z,36.88
2019-04-03T05:54:03.482Z,36.20
2019-04-03T05:56:52.444Z,31.77
2019-04-03T05:59:44.361Z,31.77
2019-04-03T06:02:33.548Z,29.00
2019-04-03T06:05:22.668Z,31.45
2019-04-03T06:08:12.291Z,34.05
2019-04-03T06:11:03.546Z,28.10
2019-04-03T06:13:51.852Z,37.95
2019-04-03T06:16:40.995Z,29.50
2019-04-03T06:19:30.440Z,27.80
2019-04-03T06:22:21.548Z,37.15
2019-04-03T06:25:13.749Z,31.50
2019-04-03T06:28:01.754Z,40.03
2019-04-03T06:30:51.053Z,31.10
2019-04-03T06:33:40.450Z,32.83
2019-04-03T06:36:29.895Z,28.23
2019-04-03T06:39:22.276Z,32.28
2019-04-03T06:42:13.033Z,38.70
2019-04-03T06:45:01.192Z,31.15
2019-04-03T06:47:50.197Z,28.87
2019-04-03T06:50:39.529Z,27.58
2019-04-03T06:53:29.110Z,30.35
2019-04-03T06:56:18.820Z,25.72
2019-04-03T06:59:07.840Z,26.90
2019-04-03T07:01:57.321Z,26.97
2019-04-03T07:04:46.621Z,28.62
2019-04-03T07:07:35.734Z,32.40
2019-04-03T07:13:15.276Z,26.27
2019-04-03T07:16:05.301Z,29.50
2019-04-03T07:18:54.775Z,37.88
2019-04-03T07:21:43.437Z,27.50
2019-04-03T07:24:32.504Z,39.30
2019-04-03T07:27:22.350Z,30.40
2019-04-03T07:30:13.868Z,25.43
2019-04-03T07:33:05.820Z,34.65
2019-04-03T07:35:54.756Z,28.38
2019-04-03T07:38:43.670Z,34.18
2019-04-03T07:41:33.431Z,28.67
2019-04-03T07:44:22.899Z,27.70
2019-04-03T07:47:12.988Z,23.77
2019-04-03T07:50:01.857Z,27.20
2019-04-03T07:55:43.724Z,34.75
2019-04-03T07:58:32.605Z,26.40
2019-04-03T08:01:22.393Z,24.15
2019-04-03T08:04:11.301Z,26.07
2019-04-03T08:07:00.547Z,24.67
2019-04-03T08:40:45.823Z,23.00
2019-04-03T10:24:50.023Z,38.40
2019-04-03T10:27:39.023Z,38.00
2019-04-03T10:30:28.712Z,35.00
2019-04-03T10:33:17.879Z,33.00
2019-04-03T10:38:54.982Z,37.65
2019-04-03T10:44:32.294Z,36.00
2019-04-03T10:47:25.289Z,32.40
2019-04-03T10:50:14.088Z,33.60
2019-04-03T10:53:03.369Z,28.25
2019-04-03T10:55:52.649Z,31.45
2019-04-03T10:58:43.605Z,27.63
2019-04-03T11:01:33.449Z,28.32
2019-04-03T11:04:22.970Z,29.00
2019-04-03T11:07:12.399Z,27.67
2019-04-03T11:10:01.249Z,37.67
2019-04-03T11:12:50.314Z,30.55
2019-04-03T11:15:39.461Z,24.65
2019-04-03T11:18:28.344Z,22.77
2019-04-03T11:21:17.811Z,25.50
2019-04-03T11:24:07.381Z,23.25
2019-04-03T11:26:57.022Z,21.70
2019-04-03T11:29:46.885Z,24.65
2019-04-03T12:26:02.720Z,19.40
2019-04-03T12:57:02.152Z,9.70
2019-04-03T12:59:51.323Z,9.18
2019-04-03T13:02:41.302Z,6.12
2019-04-03T13:05:30.112Z,7.80
2019-04-03T13:08:21.182Z,5.67
2019-04-03T13:11:09.997Z,8.05
2019-04-03T13:13:59.916Z,10.13
2019-04-03T13:16:49.759Z,6.60
2019-04-03T13:19:38.904Z,12.65
2019-04-03T13:22:28.820Z,7.67
2019-04-03T13:25:20.596Z,10.88
2019-04-03T13:28:08.611Z,8.83
2019-04-03T13:30:57.482Z,7.33
2019-04-03T13:33:46.704Z,5.62
2019-04-03T13:36:35.778Z,18.70
2019-04-03T13:39:24.542Z,10.60
2019-04-03T13:42:14.128Z,6.42
2019-04-03T13:45:07.158Z,9.50
2019-04-03T13:47:57.526Z,7.95
2019-04-03T13:50:47.382Z,7.60
2019-04-03T13:53:36.594Z,8.53
2019-04-03T13:56:25.781Z,8.23
2019-04-03T13:59:15.112Z,7.05
2019-04-03T14:02:04.729Z,8.00
2019-04-03T14:04:56.303Z,8.98
2019-04-03T14:07:45.323Z,5.60
2019-04-03T14:10:35.186Z,7.47
2019-04-03T14:13:24.045Z,8.58
2019-04-03T14:16:21.573Z,5.92
2019-04-03T14:19:04.832Z,5.15
2019-04-03T14:21:54.632Z,5.65
2019-04-03T14:24:48.848Z,5.60
2019-04-03T14:27:35.010Z,4.45
2019-04-03T14:30:23.684Z,5.25
2019-04-03T14:33:13.571Z,5.12
2019-04-03T14:36:03.238Z,6.33
2019-04-03T14:38:52.466Z,6.15
2019-04-03T14:41:42.105Z,8.63
2019-04-03T14:44:30.650Z,6.55
2019-04-03T14:47:21.769Z,6.72
2019-04-03T14:50:10.319Z,5.15
2019-04-03T14:52:59.462Z,7.22
2019-04-03T14:55:50.055Z,10.05
2019-04-03T14:58:39.749Z,7.30
2019-04-03T15:01:28.934Z,8.45
2019-04-03T15:04:17.878Z,8.98
2019-04-03T15:07:09.560Z,12.98
2019-04-03T15:09:59.443Z,9.43
2019-04-03T15:12:48.878Z,13.98
2019-04-03T15:15:38.226Z,13.55
2019-04-03T15:18:27.495Z,14.13
2019-04-03T15:21:16.612Z,11.85
2019-04-03T15:24:05.936Z,12.15
2019-04-03T15:26:55.107Z,13.83
2019-04-03T15:29:44.806Z,13.45
2019-04-03T15:32:35.243Z,17.42
2019-04-03T15:35:25.398Z,14.50
2019-04-03T15:38:16.025Z,14.30
2019-04-03T15:41:05.809Z,14.30
2019-04-03T15:43:55.044Z,19.98
2019-04-03T15:46:44.889Z,23.75
2019-04-03T15:49:34.013Z,21.97
2019-04-03T15:52:23.762Z,17.90
2019-04-03T15:55:14.089Z,22.75
2019-04-03T15:58:02.887Z,15.13
2019-04-03T16:00:52.478Z,15.43
2019-04-03T16:03:41.528Z,18.12
2019-04-03T16:06:33.450Z,17.00
2019-04-03T16:09:23.855Z,17.32
2019-04-03T16:12:12.743Z,19.17
2019-04-03T16:15:01.861Z,14.65
2019-04-03T16:17:51.275Z,17.15
2019-04-03T16:20:40.829Z,13.83
2019-04-03T16:23:30.015Z,16.75
2019-04-03T16:26:19.215Z,13.32
2019-04-03T16:29:09.254Z,13.48
2019-04-03T16:31:58.511Z,10.95
2019-04-03T16:34:48.540Z,12.28
2019-04-03T16:37:38.369Z,14.33
2019-04-03T16:40:27.026Z,15.28
2019-04-03T16:43:16.745Z,12.45
2019-04-03T16:46:05.884Z,14.07
2019-04-03T16:48:55.178Z,13.60
2019-04-03T16:51:44.742Z,13.50
2019-04-03T16:54:34.353Z,14.28
2019-04-03T16:57:24.020Z,13.62
2019-04-03T17:00:14.621Z,13.25
2019-04-03T17:03:03.735Z,14.13
2019-04-03T17:05:53.361Z,14.20
2019-04-03T17:08:42.425Z,13.32
2019-04-03T17:11:31.595Z,15.90
2019-04-03T17:14:23.239Z,16.17
2019-04-03T17:17:14.166Z,14.43
2019-04-03T17:20:07.963Z,14.00
2019-04-03T17:22:57.171Z,18.15
2019-04-03T17:25:50.083Z,13.45
2019-04-03T17:28:39.356Z,15.50
2019-04-03T17:31:28.152Z,19.12
2019-04-03T17:34:17.138Z,15.00
2019-04-03T17:37:06.344Z,15.68
2019-04-03T17:39:56.041Z,15.88
2019-04-03T17:42:45.331Z,16.20
2019-04-03T17:45:34.420Z,21.00
2019-04-03T17:48:24.873Z,15.20
2019-04-03T17:51:15.083Z,15.68
2019-04-03T17:54:07.519Z,16.02
2019-04-03T17:56:55.459Z,15.48
2019-04-03T17:59:44.370Z,17.75
2019-04-03T18:02:33.799Z,17.30
2019-04-03T18:05:25.360Z,17.90
2019-04-03T18:08:13.460Z,17.05
2019-04-03T18:11:02.812Z,17.17
2019-04-03T18:13:53.007Z,32.53
2019-04-03T18:16:42.639Z,25.25
2019-04-03T18:19:37.583Z,20.68
2019-04-03T18:22:22.491Z,17.00
2019-04-03T18:25:12.420Z,16.85
2019-04-03T18:28:04.814Z,17.85
2019-04-03T18:30:53.210Z,18.98
2019-04-03T18:33:42.306Z,18.25
2019-04-03T18:36:31.440Z,20.17
2019-04-03T18:39:20.557Z,23.70
2019-04-03T18:42:09.424Z,20.45
2019-04-03T18:44:58.302Z,21.85
2019-04-03T18:47:47.000Z,17.55
2019-04-03T18:50:35.780Z,20.97
2019-04-03T18:53:24.958Z,20.88
2019-04-03T18:56:15.530Z,25.40
2019-04-03T18:59:05.538Z,23.18
2019-04-03T19:01:54.597Z,21.75
2019-04-03T19:04:43.498Z,39.48
2019-04-03T19:07:32.729Z,18.85
2019-04-03T19:10:23.262Z,27.87
2019-04-03T19:13:14.694Z,23.05
2019-04-03T19:16:04.042Z,21.37
2019-04-03T19:18:53.014Z,24.77
2019-04-03T19:21:42.455Z,21.65
2019-04-03T19:24:31.444Z,25.68
2019-04-03T19:27:21.100Z,22.60
2019-04-03T19:30:12.443Z,23.32
2019-04-03T19:33:01.805Z,28.83
2019-04-03T19:35:50.482Z,21.87
2019-04-03T19:38:39.115Z,22.77
2019-04-03T19:41:28.340Z,22.15
2019-04-03T19:44:19.231Z,26.15
2019-04-03T19:47:08.069Z,24.70
2019-04-03T19:49:59.734Z,20.92
2019-04-03T19:52:48.435Z,21.75
2019-04-03T19:55:37.266Z,21.60
2019-04-03T19:58:28.758Z,24.65
2019-04-03T20:01:16.667Z,23.75
2019-04-03T20:04:06.002Z,24.65
2019-04-03T20:06:55.383Z,30.45
2019-04-03T20:09:44.639Z,25.77
2019-04-03T20:12:34.020Z,31.07
2019-04-03T20:15:23.567Z,30.02
2019-04-03T20:18:13.075Z,30.68
2019-04-03T20:21:03.803Z,30.43
2019-04-03T20:23:53.557Z,29.48
2019-04-03T20:26:42.386Z,37.70
2019-04-03T20:29:31.836Z,31.77
2019-04-03T20:32:21.873Z,28.90
2019-04-03T20:35:11.410Z,28.67
2019-04-03T20:38:01.025Z,32.57
2019-04-03T20:40:50.009Z,35.00
2019-04-03T20:43:39.135Z,28.70
2019-04-03T20:49:16.123Z,33.40
2019-04-03T20:52:05.728Z,41.40
2019-04-03T20:54:55.096Z,35.00
2019-04-03T20:57:54.880Z,39.40
2019-04-03T21:00:35.523Z,38.67
2019-04-03T21:03:24.762Z,38.83
2019-04-03T21:06:14.148Z,44.03
2019-04-03T21:09:05.346Z,47.25
2019-04-03T21:11:54.108Z,43.25
2019-04-03T21:14:43.671Z,42.43
2019-04-03T21:17:32.818Z,34.10
2019-04-03T21:20:23.521Z,39.13
2019-04-03T21:23:12.794Z,39.38
2019-04-03T21:26:01.812Z,42.03
2019-04-03T21:28:50.646Z,35.28
2019-04-03T21:31:39.634Z,41.40
2019-04-03T21:34:28.985Z,38.08
2019-04-03T21:37:18.174Z,37.15
